Time;durP1;ratioP1;P1;durP2;ratioP2;P2;SDS_P1;SDS_P2;PMS_P1;PMS_P2;Temp;Humidity;BMP_temperature;BMP_pressure;BME280_temperature;BME280_humidity;BME280_pressure;Samples;Min_cycle;Max_cycle;Signal;HPM_P1;HPM_P2
2022/06/10 00:01:57;;;;;;;;;;;10.90;99.90;;;;;;4923779;29;19918;-56
2022/06/10 00:04:23;;;;;;;;;;;10.90;99.90;;;;;;4921282;29;19922;-56
2022/06/10 00:06:48;;;;;;;;;;;10.90;99.90;;;;;;4918757;29;20009;-55
2022/06/10 00:09:14;;;;;;;;;;;10.80;99.90;;;;;;4919411;29;20642;-56
2022/06/10 00:11:39;;;;;;;;;;;10.80;99.90;;;;;;4920288;29;19918;-55
2022/06/10 00:14:05;;;;;;;;;;;11.10;99.90;;;;;;4928212;29;19930;-56
2022/06/10 00:16:31;;;;;;;;;;;10.90;99.90;;;;;;4927692;29;19922;-56
2022/06/10 00:18:56;;;;;;;;;;;11.00;99.90;;;;;;4929543;29;19907;-56
2022/06/10 00:21:22;;;;;;;;;;;10.90;99.90;;;;;;4918633;29;19927;-55
2022/06/10 00:23:47;;;;;;;;;;;11.10;99.90;;;;;;4921035;29;19915;-56
2022/06/10 00:26:13;;;;;;;;;;;11.10;99.90;;;;;;4923875;29;19910;-56
2022/06/10 00:28:40;;;;;;;;;;;11.00;99.90;;;;;;4920385;29;19990;-57
2022/06/10 00:31:05;;;;;;;;;;;11.00;99.90;;;;;;4927304;29;19911;-56
2022/06/10 00:33:33;;;;;;;;;;;10.80;99.90;;;;;;4921579;29;19974;-56
2022/06/10 00:35:59;;;;;;;;;;;10.70;99.90;;;;;;4921776;29;19911;-56
2022/06/10 00:38:25;;;;;;;;;;;10.60;99.90;;;;;;4920224;29;19934;-56
2022/06/10 00:40:52;;;;;;;;;;;10.60;99.90;;;;;;4920701;29;20327;-56
2022/06/10 00:43:19;;;;;;;;;;;10.50;99.90;;;;;;4922939;29;20359;-56
2022/06/10 00:45:47;;;;;;;;;;;10.60;99.90;;;;;;4919752;29;19911;-56
2022/06/10 00:48:14;;;;;;;;;;;10.60;99.90;;;;;;4925086;29;19963;-56
2022/06/10 00:50:41;;;;;;;;;;;11.00;99.90;;;;;;4915786;29;19950;-56
2022/06/10 00:53:08;;;;;;;;;;;11.30;99.90;;;;;;4917937;29;19991;-56
2022/06/10 00:55:36;;;;;;;;;;;11.10;99.90;;;;;;4920557;29;19907;-56
2022/06/10 00:58:21;;;;;;;;;;;11.30;99.90;;;;;;4923500;29;20284;-56
2022/06/10 01:00:47;;;;;;;;;;;11.20;99.90;;;;;;4923826;29;20005;-56
2022/06/10 01:03:13;;;;;;;;;;;11.20;99.90;;;;;;4921187;29;20010;-56
2022/06/10 01:05:38;;;;;;;;;;;11.20;99.90;;;;;;4920934;29;19966;-56
2022/06/10 01:08:10;;;;;;;;;;;11.40;99.90;;;;;;4920308;29;20009;-56
2022/06/10 01:10:56;;;;;;;;;;;11.30;99.90;;;;;;4926489;29;20025;-56
2022/06/10 01:13:27;;;;;;;;;;;11.60;99.90;;;;;;4921593;29;19918;-56
2022/06/10 01:15:59;;;;;;;;;;;11.80;99.90;;;;;;4926946;29;20066;-55
2022/06/10 01:18:25;;;;;;;;;;;11.80;99.90;;;;;;4927926;29;19910;-56
2022/06/10 01:20:51;;;;;;;;;;;;;;;;;;4922835;29;19915;-56
2022/06/10 01:23:40;;;;;;;;;;;11.90;99.90;;;;;;4922137;29;20014;-56
2022/06/10 01:26:15;;;;;;;;;;;12.00;99.90;;;;;;4922039;29;19915;-56
2022/06/10 01:28:59;;;;;;;;;;;12.10;99.90;;;;;;4925856;29;19930;-55
2022/06/10 01:31:30;;;;;;;;;;;12.10;99.90;;;;;;4923139;29;19934;-55
2022/06/10 01:34:04;;;;;;;;;;;12.10;99.90;;;;;;4926392;29;19915;-56
2022/06/10 01:36:42;;;;;;;;;;;12.00;99.90;;;;;;4925521;29;20370;-56
2022/06/10 01:39:33;;;;;;;;;;;12.00;99.90;;;;;;4927146;29;19997;-56
2022/06/10 01:42:02;;;;;;;;;;;11.90;99.90;;;;;;4902976;29;19911;-56
2022/06/10 01:44:34;;;;;;;;;;;12.10;99.90;;;;;;4924337;29;20390;-56
2022/06/10 01:47:04;;;;;;;;;;;12.10;99.90;;;;;;4925240;29;19918;-55
2022/06/10 01:49:33;;;;;;;;;;;12.10;99.90;;;;;;4927061;29;19946;-56
2022/06/10 01:52:08;;;;;;;;;;;12.10;99.90;;;;;;4917754;29;19977;-56
2022/06/10 01:54:53;;;;;;;;;;;12.10;99.90;;;;;;4909103;29;20014;-56
2022/06/10 01:57:24;;;;;;;;;;;12.10;99.90;;;;;;4923683;29;19911;-55
2022/06/10 01:59:56;;;;;;;;;;;12.10;99.90;;;;;;4922404;29;20387;-56
2022/06/10 02:02:25;;;;;;;;;;;12.10;99.90;;;;;;4918201;29;19911;-56
2022/06/10 02:04:53;;;;;;;;;;;12.10;99.90;;;;;;4919177;29;19961;-56
2022/06/10 02:07:18;;;;;;;;;;;12.10;99.90;;;;;;4920499;29;20318;-56
2022/06/10 02:09:48;;;;;;;;;;;12.00;99.90;;;;;;4922279;29;19918;-56
2022/06/10 02:12:18;;;;;;;;;;;11.90;99.90;;;;;;4923470;29;19958;-56
2022/06/10 02:14:48;;;;;;;;;;;11.90;99.90;;;;;;4919469;29;19910;-56
2022/06/10 02:17:15;;;;;;;;;;;12.00;99.90;;;;;;4923943;29;20385;-56
2022/06/10 02:19:42;;;;;;;;;;;11.90;99.90;;;;;;4913384;29;19907;-55
2022/06/10 02:22:13;;;;;;;;;;;12.00;99.90;;;;;;4916952;29;19918;-55
2022/06/10 02:25:05;;;;;;;;;;;12.00;99.90;;;;;;4917489;29;20049;-56
2022/06/10 02:27:33;;;;;;;;;;;12.00;99.90;;;;;;4914840;29;20386;-56
2022/06/10 02:30:07;;;;;;;;;;;12.00;99.90;;;;;;4918500;29;19917;-56
2022/06/10 02:32:33;;;;;;;;;;;12.00;99.90;;;;;;4919316;29;19911;-56
2022/06/10 02:34:59;;;;;;;;;;;12.00;99.90;;;;;;4915866;29;19947;-56
2022/06/10 02:37:27;;;;;;;;;;;11.90;99.90;;;;;;4919680;29;20402;-56
2022/06/10 02:39:57;;;;;;;;;;;11.90;99.90;;;;;;4918180;29;20371;-56
2022/06/10 02:42:45;;;;;;;;;;;11.70;99.90;;;;;;4918687;29;19911;-56
2022/06/10 02:45:22;;;;;;;;;;;11.70;99.90;;;;;;4912883;29;20485;-56
2022/06/10 02:48:03;;;;;;;;;;;11.70;99.90;;;;;;4923093;29;20501;-56
2022/06/10 02:50:28;;;;;;;;;;;11.60;99.90;;;;;;4917247;29;19950;-56
2022/06/10 02:52:54;;;;;;;;;;;11.70;99.90;;;;;;4916333;29;19976;-56
2022/06/10 02:55:21;;;;;;;;;;;11.70;99.90;;;;;;4915354;29;19947;-56
2022/06/10 03:03:38;;;;;;;;;;;11.60;99.90;;;;;;4919467;29;19972;-55
2022/06/10 03:06:09;;;;;;;;;;;11.50;99.90;;;;;;4917985;29;19911;-56
2022/06/10 03:08:36;;;;;;;;;;;11.50;99.90;;;;;;4921540;29;19959;-56
2022/06/10 03:11:20;;;;;;;;;;;11.60;99.90;;;;;;4925001;29;19918;-55
2022/06/10 03:13:49;;;;;;;;;;;11.70;99.90;;;;;;4921875;29;19915;-55
2022/06/10 03:16:34;;;;;;;;;;;11.80;99.90;;;;;;4924610;29;19911;-55
2022/06/10 03:19:25;;;;;;;;;;;11.70;99.90;;;;;;4923517;29;19993;-56
2022/06/10 03:21:51;;;;;;;;;;;11.60;99.90;;;;;;4915952;29;19985;-56
2022/06/10 03:24:18;;;;;;;;;;;11.60;99.90;;;;;;4921265;29;20305;-56
2022/06/10 03:26:44;;;;;;;;;;;11.30;99.90;;;;;;4922513;29;19911;-56
2022/06/10 03:29:23;;;;;;;;;;;11.10;99.90;;;;;;4921556;29;20735;-55
2022/06/10 03:31:51;;;;;;;;;;;11.10;99.90;;;;;;4923265;29;19972;-56
2022/06/10 03:34:20;;;;;;;;;;;11.00;99.90;;;;;;4922264;29;19922;-56
2022/06/10 03:36:46;;;;;;;;;;;11.00;99.90;;;;;;4925570;29;19917;-56
2022/06/10 03:39:12;;;;;;;;;;;11.30;99.90;;;;;;4925314;29;19907;-56
2022/06/10 03:41:53;;;;;;;;;;;11.30;99.90;;;;;;4924022;29;20377;-56
2022/06/10 03:44:18;;;;;;;;;;;11.50;99.90;;;;;;4921798;29;19930;-56
2022/06/10 03:46:48;;;;;;;;;;;11.60;99.90;;;;;;4923312;29;20294;-56
2022/06/10 03:49:15;;;;;;;;;;;11.60;99.90;;;;;;4922525;29;19958;-55
2022/06/10 03:51:40;;;;;;;;;;;11.70;99.90;;;;;;4918133;29;19950;-55
2022/06/10 03:54:06;;;;;;;;;;;11.70;99.90;;;;;;4921974;29;20040;-55
2022/06/10 03:56:35;;;;;;;;;;;11.80;99.90;;;;;;4921999;29;19994;-56
2022/06/10 03:59:00;;;;;;;;;;;11.90;99.90;;;;;;4923744;29;19990;-55
2022/06/10 04:01:26;;;;;;;;;;;11.90;99.90;;;;;;4911028;29;19915;-55
2022/06/10 04:03:51;;;;;;;;;;;12.00;99.90;;;;;;4917958;29;20001;-55
2022/06/10 04:06:17;;;;;;;;;;;12.00;99.90;;;;;;4914264;29;20036;-55
2022/06/10 04:08:43;;;;;;;;;;;12.10;99.90;;;;;;4919356;29;20640;-55
2022/06/10 04:11:08;;;;;;;;;;;12.10;99.90;;;;;;4920122;29;20342;-55
2022/06/10 04:13:34;;;;;;;;;;;12.20;99.90;;;;;;4919167;29;19911;-55
2022/06/10 04:15:59;;;;;;;;;;;12.30;99.90;;;;;;4917948;29;19918;-55
2022/06/10 04:18:25;;;;;;;;;;;12.30;99.90;;;;;;4919196;29;19974;-56
2022/06/10 04:20:51;;;;;;;;;;;12.40;99.90;;;;;;4919829;29;19929;-56
2022/06/10 04:23:17;;;;;;;;;;;12.40;99.90;;;;;;4915691;29;19919;-56
2022/06/10 04:25:44;;;;;;;;;;;12.50;99.90;;;;;;4920074;29;19922;-56
2022/06/10 04:28:10;;;;;;;;;;;12.40;99.90;;;;;;4915957;29;20268;-56
2022/06/10 04:30:38;;;;;;;;;;;12.50;99.90;;;;;;4919256;29;20026;-56
2022/06/10 04:33:04;;;;;;;;;;;12.60;99.90;;;;;;4918848;29;19917;-56
2022/06/10 04:35:30;;;;;;;;;;;12.60;99.90;;;;;;4916290;29;19958;-56
2022/06/10 04:37:56;;;;;;;;;;;12.60;99.90;;;;;;4917040;29;20049;-56
2022/06/10 04:40:22;;;;;;;;;;;12.60;99.90;;;;;;4915406;29;19918;-55
2022/06/10 04:42:49;;;;;;;;;;;12.70;99.90;;;;;;4920595;29;19910;-56
2022/06/10 04:45:16;;;;;;;;;;;12.80;99.90;;;;;;4916347;29;19947;-55
2022/06/10 04:47:41;;;;;;;;;;;12.80;99.90;;;;;;4924824;29;20575;-55
2022/06/10 04:50:07;;;;;;;;;;;12.80;99.90;;;;;;4921915;29;19911;-56
2022/06/10 04:52:33;;;;;;;;;;;12.90;99.90;;;;;;4916811;29;20014;-56
2022/06/10 04:54:59;;;;;;;;;;;12.90;99.90;;;;;;4923668;29;20389;-55
2022/06/10 04:57:24;;;;;;;;;;;13.00;99.90;;;;;;4924234;29;19911;-55
2022/06/10 04:59:50;;;;;;;;;;;13.10;99.90;;;;;;4928189;29;19938;-56
2022/06/10 05:02:16;;;;;;;;;;;13.10;99.90;;;;;;4925669;29;19911;-56
2022/06/10 05:04:41;;;;;;;;;;;13.20;99.90;;;;;;4919089;29;19922;-56
2022/06/10 05:07:07;;;;;;;;;;;13.20;99.90;;;;;;4921358;29;19911;-56
2022/06/10 05:09:32;;;;;;;;;;;13.30;99.90;;;;;;4922172;29;19915;-56
2022/06/10 05:11:58;;;;;;;;;;;13.40;99.90;;;;;;4920826;29;20384;-56
2022/06/10 05:14:23;;;;;;;;;;;13.50;99.90;;;;;;4905593;29;19973;-56
2022/06/10 05:16:49;;;;;;;;;;;13.50;99.90;;;;;;4922907;29;19917;-55
2022/06/10 05:19:14;;;;;;;;;;;13.60;99.90;;;;;;4920448;29;19917;-56
2022/06/10 05:21:40;;;;;;;;;;;13.70;99.90;;;;;;4916162;29;20667;-56
2022/06/10 05:24:05;;;;;;;;;;;13.80;99.90;;;;;;4923012;29;20596;-56
2022/06/10 05:26:32;;;;;;;;;;;13.80;99.90;;;;;;4918484;29;19950;-56
2022/06/10 05:28:58;;;;;;;;;;;13.90;99.90;;;;;;4920077;29;19950;-56
2022/06/10 05:31:24;;;;;;;;;;;14.00;99.90;;;;;;4917553;29;19911;-56
2022/06/10 05:36:34;;;;;;;;;;;14.10;99.90;;;;;;4918048;29;20003;-56
2022/06/10 05:38:59;;;;;;;;;;;14.20;99.90;;;;;;4922049;29;20001;-56
2022/06/10 05:44:09;;;;;;;;;;;14.40;99.90;;;;;;4923329;29;20074;-56
2022/06/10 05:46:35;;;;;;;;;;;14.50;99.90;;;;;;4920318;29;19918;-56
2022/06/10 05:49:01;;;;;;;;;;;14.60;99.90;;;;;;4918122;29;19911;-56
2022/06/10 05:51:26;;;;;;;;;;;14.70;99.90;;;;;;4914529;29;19927;-56
2022/06/10 05:53:52;;;;;;;;;;;14.70;99.90;;;;;;4917060;29;20487;-56
2022/06/10 05:56:17;;;;;;;;;;;14.90;99.90;;;;;;4921819;29;19921;-55
2022/06/10 05:58:43;;;;;;;;;;;14.90;99.90;;;;;;4918145;29;19911;-55
2022/06/10 06:01:08;;;;;;;;;;;15.00;99.90;;;;;;4918995;29;19914;-56
2022/06/10 06:03:34;;;;;;;;;;;15.20;99.90;;;;;;4919404;29;19962;-56
2022/06/10 06:06:00;;;;;;;;;;;15.20;99.90;;;;;;4921306;29;19921;-56
2022/06/10 06:08:25;;;;;;;;;;;15.30;99.90;;;;;;4917027;29;19979;-56
2022/06/10 06:10:51;;;;;;;;;;;15.40;99.90;;;;;;4924059;29;19923;-56
2022/06/10 06:13:16;;;;;;;;;;;15.50;99.90;;;;;;4918578;29;19959;-56
2022/06/10 06:15:42;;;;;;;;;;;15.70;99.90;;;;;;4922586;29;20353;-56
2022/06/10 06:18:09;;;;;;;;;;;15.90;99.90;;;;;;4915025;29;19911;-56
2022/06/10 06:20:34;;;;;;;;;;;16.20;99.90;;;;;;4920071;29;19942;-56
2022/06/10 06:23:00;;;;;;;;;;;16.40;99.90;;;;;;4917457;29;19965;-55
2022/06/10 06:25:26;;;;;;;;;;;16.50;99.90;;;;;;4920399;29;19925;-56
2022/06/10 06:27:52;;;;;;;;;;;16.50;99.90;;;;;;4918769;29;19926;-56
2022/06/10 06:30:22;;;;;;;;;;;16.60;99.90;;;;;;4915774;29;19910;-55
2022/06/10 06:32:48;;;;;;;;;;;16.60;99.90;;;;;;4924407;29;20014;-56
2022/06/10 06:35:15;;;;;;;;;;;16.80;99.90;;;;;;4923248;29;20038;-56
2022/06/10 06:37:41;;;;;;;;;;;17.20;99.90;;;;;;4923176;29;19917;-56
2022/06/10 06:40:07;;;;;;;;;;;17.30;99.90;;;;;;4921010;29;19911;-56
2022/06/10 06:42:33;;;;;;;;;;;17.50;99.90;;;;;;4924829;29;19942;-56
2022/06/10 06:44:58;;;;;;;;;;;17.80;99.90;;;;;;4923015;29;19958;-56
2022/06/10 06:47:24;;;;;;;;;;;17.90;99.90;;;;;;4920320;29;20321;-56
2022/06/10 06:49:49;;;;;;;;;;;17.90;99.90;;;;;;4921251;29;19921;-56
2022/06/10 06:52:14;;;;;;;;;;;18.00;99.90;;;;;;4918011;29;19998;-56
2022/06/10 06:54:40;;;;;;;;;;;18.00;99.90;;;;;;4919708;29;19953;-56
2022/06/10 06:57:05;;;;;;;;;;;18.20;99.90;;;;;;4923272;29;19915;-56
2022/06/10 06:59:32;;;;;;;;;;;18.20;99.90;;;;;;4922195;29;19954;-56
2022/06/10 07:01:57;;;;;;;;;;;18.60;99.90;;;;;;4922842;29;19918;-56
2022/06/10 07:04:23;;;;;;;;;;;18.70;99.90;;;;;;4920678;29;19974;-56
2022/06/10 07:06:49;;;;;;;;;;;18.50;99.90;;;;;;4916893;29;19907;-56
2022/06/10 07:09:14;;;;;;;;;;;18.40;99.90;;;;;;4919924;29;19917;-55
2022/06/10 07:11:41;;;;;;;;;;;18.40;99.90;;;;;;4917316;29;19984;-56
2022/06/10 07:14:06;;;;;;;;;;;18.30;99.90;;;;;;4919359;29;19919;-56
2022/06/10 07:16:32;;;;;;;;;;;18.40;99.90;;;;;;4924379;29;19929;-56
2022/06/10 07:18:57;;;;;;;;;;;18.60;99.90;;;;;;4926239;28;19914;-56
2022/06/10 07:21:23;;;;;;;;;;;19.10;99.90;;;;;;4921165;29;20026;-56
2022/06/10 07:23:48;;;;;;;;;;;19.20;99.90;;;;;;4920866;29;19918;-56
2022/06/10 07:26:15;;;;;;;;;;;19.60;99.90;;;;;;4924830;29;20240;-56
2022/06/10 07:28:41;;;;;;;;;;;19.60;99.90;;;;;;4923155;29;19911;-56
2022/06/10 07:31:06;;;;;;;;;;;19.60;99.90;;;;;;4923482;29;19926;-56
2022/06/10 07:33:34;;;;;;;;;;;19.40;99.90;;;;;;4923570;29;20081;-56
2022/06/10 07:35:59;;;;;;;;;;;19.40;99.90;;;;;;4924169;29;20335;-56
2022/06/10 07:38:25;;;;;;;;;;;19.30;99.90;;;;;;4920975;29;19919;-56
2022/06/10 07:43:35;;;;;;;;;;;19.10;99.90;;;;;;4920295;29;20339;-55
2022/06/10 07:46:02;;;;;;;;;;;19.20;99.90;;;;;;4926110;29;19907;-56
2022/06/10 07:48:28;;;;;;;;;;;;;;;;;;4921818;29;20049;-56
2022/06/10 07:50:53;;;;;;;;;;;19.70;99.90;;;;;;4919934;29;19961;-56
2022/06/10 07:53:19;;;;;;;;;;;20.20;99.90;;;;;;4925878;29;20453;-56
2022/06/10 07:55:45;;;;;;;;;;;19.80;99.90;;;;;;4919651;29;19965;-55
2022/06/10 07:58:12;;;;;;;;;;;19.60;99.90;;;;;;4929020;29;19918;-56
2022/06/10 08:00:37;;;;;;;;;;;19.80;99.90;;;;;;4921329;29;20517;-56
2022/06/10 08:03:05;;;;;;;;;;;19.90;99.90;;;;;;4918699;29;20153;-56
2022/06/10 08:05:31;;;;;;;;;;;19.60;99.90;;;;;;4918193;29;19916;-55
2022/06/10 08:07:57;;;;;;;;;;;19.00;99.90;;;;;;4923177;29;19915;-56
2022/06/10 08:10:24;;;;;;;;;;;18.90;99.90;;;;;;4921374;29;20378;-56
2022/06/10 08:12:49;;;;;;;;;;;18.70;99.90;;;;;;4920291;29;20293;-56
2022/06/10 08:15:16;;;;;;;;;;;18.90;99.90;;;;;;4919876;29;19911;-55
2022/06/10 08:17:41;;;;;;;;;;;18.80;99.90;;;;;;4923394;29;19945;-56
2022/06/10 08:20:08;;;;;;;;;;;19.10;99.90;;;;;;4916973;29;19945;-56
2022/06/10 08:22:34;;;;;;;;;;;19.30;99.90;;;;;;4920300;29;19918;-56
2022/06/10 08:25:00;;;;;;;;;;;19.50;99.90;;;;;;4925754;29;19965;-55
2022/06/10 08:27:25;;;;;;;;;;;19.40;99.90;;;;;;4922247;29;19957;-56
2022/06/10 08:29:51;;;;;;;;;;;19.40;99.90;;;;;;4922721;29;19933;-56
2022/06/10 08:32:16;;;;;;;;;;;19.40;99.90;;;;;;4924192;29;19941;-56
2022/06/10 08:34:42;;;;;;;;;;;19.40;99.90;;;;;;4925691;29;20009;-56
2022/06/10 08:37:08;;;;;;;;;;;19.70;99.90;;;;;;4925440;29;20411;-56
2022/06/10 08:39:34;;;;;;;;;;;;;;;;;;4925773;29;19985;-61
2022/06/10 08:42:14;;;;;;;;;;;19.70;99.90;;;;;;4922999;29;19915;-56
2022/06/10 08:45:00;;;;;;;;;;;19.70;99.90;;;;;;4917906;29;20001;-56
2022/06/10 08:47:43;;;;;;;;;;;19.80;99.90;;;;;;4925102;29;20022;-56
2022/06/10 08:50:37;;;;;;;;;;;19.90;99.90;;;;;;4919023;29;19921;-56
2022/06/10 08:53:09;;;;;;;;;;;19.70;99.90;;;;;;4871651;29;19928;-56
2022/06/10 08:55:43;;;;;;;;;;;20.30;99.90;;;;;;4923198;29;19907;-57
2022/06/10 08:58:29;;;;;;;;;;;20.10;99.90;;;;;;4923989;29;19918;-57
2022/06/10 09:01:04;;;;;;;;;;;20.00;99.90;;;;;;4921865;29;19918;-56
2022/06/10 09:03:36;;;;;;;;;;;19.60;99.90;;;;;;4919753;29;20326;-57
2022/06/10 09:06:03;;;;;;;;;;;19.50;99.90;;;;;;4919030;29;19907;-56
2022/06/10 09:08:37;;;;;;;;;;;19.90;99.90;;;;;;4922220;29;19989;-56
2022/06/10 09:11:12;;;;;;;;;;;20.60;99.90;;;;;;4922097;29;19907;-57
2022/06/10 09:13:44;;;;;;;;;;;21.80;99.90;;;;;;4922000;29;20289;-57
2022/06/10 09:16:23;;;;;;;;;;;22.20;99.90;;;;;;4920577;29;19918;-57
2022/06/10 09:18:54;;;;;;;;;;;22.60;99.90;;;;;;4925345;29;19933;-57
2022/06/10 09:21:30;;;;;;;;;;;23.40;99.90;;;;;;4916681;29;19918;-57
2022/06/10 09:23:57;;;;;;;;;;;23.10;99.50;;;;;;4920699;29;20648;-56
2022/06/10 09:26:30;;;;;;;;;;;22.20;99.90;;;;;;4917460;29;20669;-56
2022/06/10 09:28:56;;;;;;;;;;;22.20;99.90;;;;;;4917486;29;20069;-56
2022/06/10 09:31:37;;;;;;;;;;;22.50;99.90;;;;;;4918731;29;20001;-57
2022/06/10 09:34:16;;;;;;;;;;;22.80;99.90;;;;;;4922120;29;20010;-56
2022/06/10 09:36:42;;;;;;;;;;;22.40;99.90;;;;;;4919386;29;19969;-56
2022/06/10 09:40:35;;;;;;;;;;;22.70;99.90;;;;;;4921771;29;20011;-57
2022/06/10 09:41:59;;;;;;;;;;;22.20;99.90;;;;;;4919409;29;20602;-56
2022/06/10 09:44:25;;;;;;;;;;;21.80;99.90;;;;;;4921151;29;19919;-57
2022/06/10 09:46:53;;;;;;;;;;;22.60;99.90;;;;;;4918636;29;20022;-57
2022/06/10 09:49:26;;;;;;;;;;;23.40;99.90;;;;;;4922469;29;19957;-56
2022/06/10 09:51:54;;;;;;;;;;;23.80;99.90;;;;;;4916693;29;19975;-57
2022/06/10 09:54:19;;;;;;;;;;;23.00;99.90;;;;;;4921627;29;19918;-56
2022/06/10 09:57:04;;;;;;;;;;;22.80;99.90;;;;;;4918758;29;19911;-57
2022/06/10 09:59:42;;;;;;;;;;;22.50;99.90;;;;;;4915891;29;19911;-56
2022/06/10 10:02:17;;;;;;;;;;;23.10;99.90;;;;;;4920054;29;20327;-57
2022/06/10 10:04:54;;;;;;;;;;;24.00;99.10;;;;;;4916627;29;19963;-56
2022/06/10 10:07:26;;;;;;;;;;;23.90;99.30;;;;;;4914176;29;19911;-57
2022/06/10 10:10:05;;;;;;;;;;;23.80;99.20;;;;;;4921510;29;20358;-57
2022/06/10 10:12:33;;;;;;;;;;;23.70;99.40;;;;;;4918087;29;19911;-57
2022/06/10 10:15:08;;;;;;;;;;;24.60;98.70;;;;;;4919399;29;20306;-57
2022/06/10 10:17:37;;;;;;;;;;;24.20;98.70;;;;;;4919853;29;19914;-57
2022/06/10 10:20:22;;;;;;;;;;;25.30;97.60;;;;;;4917700;29;19949;-56
2022/06/10 10:22:50;;;;;;;;;;;25.80;96.20;;;;;;4916399;29;19965;-57
2022/06/10 10:25:21;;;;;;;;;;;25.80;95.60;;;;;;4917462;29;20255;-57
2022/06/10 10:27:47;;;;;;;;;;;25.30;94.60;;;;;;4919195;29;19911;-56
2022/06/10 10:30:16;;;;;;;;;;;24.50;95.70;;;;;;4918717;29;19911;-56
2022/06/10 10:32:44;;;;;;;;;;;24.40;96.10;;;;;;4919860;29;20002;-56
2022/06/10 10:35:21;;;;;;;;;;;24.30;95.70;;;;;;4918123;29;19942;-57
2022/06/10 10:37:52;;;;;;;;;;;23.90;96.80;;;;;;4916515;29;20224;-57
2022/06/10 10:40:19;;;;;;;;;;;23.80;97.30;;;;;;4917856;29;19954;-57
2022/06/10 10:42:45;;;;;;;;;;;23.20;98.50;;;;;;4919480;29;19910;-56
2022/06/10 10:45:27;;;;;;;;;;;23.20;99.40;;;;;;4915884;29;19969;-56
2022/06/10 10:47:58;;;;;;;;;;;23.10;98.50;;;;;;4916243;29;19911;-57
2022/06/10 10:50:31;;;;;;;;;;;22.90;99.00;;;;;;4915576;29;19970;-57
2022/06/10 10:52:57;;;;;;;;;;;23.10;97.40;;;;;;4915022;29;19956;-56
2022/06/10 10:55:25;;;;;;;;;;;23.00;98.10;;;;;;4916932;29;20268;-57
2022/06/10 10:57:59;;;;;;;;;;;23.50;97.80;;;;;;4917480;29;19914;-57
2022/06/10 11:00:24;;;;;;;;;;;23.60;98.20;;;;;;4917490;29;19910;-57
2022/06/10 11:02:52;;;;;;;;;;;23.40;97.70;;;;;;4915286;29;20767;-57
2022/06/10 11:05:17;;;;;;;;;;;23.10;98.40;;;;;;4922594;29;20271;-56
2022/06/10 11:07:43;;;;;;;;;;;22.60;99.50;;;;;;4922262;29;19935;-57
2022/06/10 11:10:18;;;;;;;;;;;22.80;99.90;;;;;;4926783;29;19911;-57
2022/06/10 11:12:44;;;;;;;;;;;22.90;99.90;;;;;;4921359;29;20005;-57
2022/06/10 11:15:27;;;;;;;;;;;22.70;99.90;;;;;;4923403;29;20038;-58
2022/06/10 11:17:53;;;;;;;;;;;23.10;99.60;;;;;;4926075;29;19911;-58
2022/06/10 11:20:32;;;;;;;;;;;22.90;99.90;;;;;;4921913;29;20339;-59
2022/06/10 11:23:16;;;;;;;;;;;23.30;99.70;;;;;;4918008;29;19915;-58
2022/06/10 11:25:42;;;;;;;;;;;23.20;99.30;;;;;;4918159;29;19937;-58
2022/06/10 11:28:17;;;;;;;;;;;24.00;98.60;;;;;;4921000;29;19911;-58
2022/06/10 11:30:44;;;;;;;;;;;24.50;97.60;;;;;;4921560;29;20042;-58
2022/06/10 11:33:28;;;;;;;;;;;24.70;98.00;;;;;;4910000;29;20294;-58
2022/06/10 11:35:58;;;;;;;;;;;25.30;95.90;;;;;;4902044;29;20437;-59
2022/06/10 11:38:26;;;;;;;;;;;25.70;96.70;;;;;;4917037;29;19914;-59
2022/06/10 11:40:53;;;;;;;;;;;27.00;94.10;;;;;;4918972;29;19918;-57
2022/06/10 11:43:29;;;;;;;;;;;26.10;94.20;;;;;;4920539;29;19933;-58
2022/06/10 11:46:05;;;;;;;;;;;25.70;95.30;;;;;;4919049;29;20002;-59
2022/06/10 11:48:45;;;;;;;;;;;25.30;95.40;;;;;;4919385;29;19907;-59
2022/06/10 11:51:17;;;;;;;;;;;25.90;95.20;;;;;;4919266;29;19929;-58
2022/06/10 11:54:00;;;;;;;;;;;26.30;94.90;;;;;;4919207;29;19918;-58
2022/06/10 12:02:24;;;;;;;;;;;25.80;95.70;;;;;;4882865;29;19919;-58
2022/06/10 12:04:58;;;;;;;;;;;26.20;93.80;;;;;;4916132;29;19945;-58
2022/06/10 12:07:26;;;;;;;;;;;26.10;94.50;;;;;;4922779;29;19910;-59
2022/06/10 12:09:52;;;;;;;;;;;;;;;;;;4924051;29;19911;-58
2022/06/10 12:12:20;;;;;;;;;;;25.60;93.70;;;;;;4927408;29;19917;-59
2022/06/10 12:14:51;;;;;;;;;;;25.40;95.00;;;;;;4925753;29;20001;-57
2022/06/10 12:17:20;;;;;;;;;;;25.30;95.40;;;;;;4929038;29;19915;-59
2022/06/10 12:19:46;;;;;;;;;;;25.60;95.10;;;;;;4923071;29;19938;-58
2022/06/10 12:22:13;;;;;;;;;;;24.80;95.00;;;;;;4923340;29;20322;-58
2022/06/10 12:24:38;;;;;;;;;;;24.30;95.90;;;;;;4924034;29;19915;-58
2022/06/10 12:27:06;;;;;;;;;;;23.70;96.80;;;;;;4927534;29;19910;-58
2022/06/10 12:29:44;;;;;;;;;;;23.80;97.00;;;;;;4923710;29;19971;-58
2022/06/10 12:32:18;;;;;;;;;;;24.00;97.70;;;;;;4925885;29;19933;-58
2022/06/10 12:34:56;;;;;;;;;;;23.40;98.00;;;;;;4922840;29;20567;-58
2022/06/10 12:37:21;;;;;;;;;;;23.70;99.10;;;;;;4927510;29;20215;-59
2022/06/10 12:39:50;;;;;;;;;;;24.70;97.20;;;;;;4922079;29;20576;-58
2022/06/10 12:42:22;;;;;;;;;;;24.90;97.00;;;;;;4925935;29;19911;-58
2022/06/10 12:44:50;;;;;;;;;;;25.00;96.00;;;;;;4921456;29;19926;-58
2022/06/10 12:47:19;;;;;;;;;;;24.90;96.30;;;;;;4925894;29;20395;-58
2022/06/10 12:49:46;;;;;;;;;;;25.20;96.70;;;;;;4924540;29;19945;-58
2022/06/10 12:52:12;;;;;;;;;;;24.90;95.50;;;;;;4922253;29;19975;-59
2022/06/10 12:54:42;;;;;;;;;;;25.40;95.70;;;;;;4921436;29;19938;-58
2022/06/10 12:57:20;;;;;;;;;;;25.50;95.90;;;;;;4919330;29;19911;-58
2022/06/10 12:59:46;;;;;;;;;;;26.10;95.10;;;;;;4920548;29;19986;-58
2022/06/10 13:02:30;;;;;;;;;;;26.70;94.90;;;;;;4919719;29;19930;-58
2022/06/10 13:04:57;;;;;;;;;;;27.30;93.70;;;;;;4918209;29;20022;-59
2022/06/10 13:07:36;;;;;;;;;;;28.20;92.00;;;;;;4921348;29;20036;-58
2022/06/10 13:10:37;;;;;;;;;;;28.30;91.50;;;;;;4920983;29;19933;-59
2022/06/10 13:13:14;;;;;;;;;;;29.50;89.30;;;;;;4919968;29;20125;-58
2022/06/10 13:15:42;;;;;;;;;;;30.10;89.20;;;;;;4922992;29;19911;-57
2022/06/10 13:18:17;;;;;;;;;;;29.40;87.70;;;;;;4926946;29;20017;-58
2022/06/10 13:20:44;;;;;;;;;;;28.20;85.90;;;;;;4919877;29;20221;-59
2022/06/10 13:23:17;;;;;;;;;;;27.10;90.10;;;;;;4925896;29;19922;-58
2022/06/10 13:25:46;;;;;;;;;;;27.30;90.10;;;;;;4920835;29;20468;-58
2022/06/10 13:28:16;;;;;;;;;;;27.90;90.00;;;;;;4924298;29;19928;-59
2022/06/10 13:30:42;;;;;;;;;;;28.10;88.40;;;;;;4922493;29;20004;-58
2022/06/10 13:33:12;;;;;;;;;;;27.30;89.20;;;;;;4924601;29;20046;-58
2022/06/10 13:35:48;;;;;;;;;;;27.10;89.60;;;;;;4923838;29;19915;-58
2022/06/10 13:38:16;;;;;;;;;;;27.10;89.50;;;;;;4921700;29;20011;-58
2022/06/10 13:40:46;;;;;;;;;;;27.70;89.00;;;;;;4924696;29;20655;-58
2022/06/10 13:43:19;;;;;;;;;;;27.20;90.10;;;;;;4922086;29;19930;-58
2022/06/10 13:45:45;;;;;;;;;;;28.40;89.70;;;;;;4922178;29;20397;-58
2022/06/10 13:48:16;;;;;;;;;;;28.10;88.20;;;;;;4924712;29;19970;-57
2022/06/10 13:53:38;;;;;;;;;;;28.40;89.20;;;;;;4923205;29;19915;-58
2022/06/10 13:56:05;;;;;;;;;;;28.60;85.50;;;;;;4925274;29;20011;-58
2022/06/10 13:58:35;;;;;;;;;;;27.00;89.60;;;;;;4921475;29;19907;-58
2022/06/10 14:01:26;;;;;;;;;;;26.90;90.40;;;;;;4924297;29;20425;-58
2022/06/10 14:04:04;;;;;;;;;;;26.60;90.90;;;;;;4914213;29;20410;-57
2022/06/10 14:06:31;;;;;;;;;;;26.20;90.90;;;;;;4918617;29;19911;-57
2022/06/10 14:09:13;;;;;;;;;;;26.50;91.00;;;;;;4918532;29;20014;-58
2022/06/10 14:11:40;;;;;;;;;;;28.30;90.10;;;;;;4918773;29;19910;-58
2022/06/10 14:14:15;;;;;;;;;;;29.40;87.30;;;;;;4920016;29;20006;-58
2022/06/10 14:16:41;;;;;;;;;;;30.30;85.50;;;;;;4916528;29;20010;-57
2022/06/10 14:19:11;;;;;;;;;;;31.40;83.40;;;;;;4921197;29;20691;-58
2022/06/10 14:21:38;;;;;;;;;;;30.70;78.90;;;;;;4914404;29;19923;-58
2022/06/10 14:24:05;;;;;;;;;;;30.90;79.00;;;;;;4918986;29;19923;-58
2022/06/10 14:26:32;;;;;;;;;;;28.20;81.80;;;;;;4918310;29;19911;-58
2022/06/10 14:29:12;;;;;;;;;;;27.80;83.60;;;;;;4920686;29;20319;-57
2022/06/10 14:31:40;;;;;;;;;;;27.60;85.20;;;;;;4918072;29;19936;-57
2022/06/10 14:34:18;;;;;;;;;;;27.60;85.20;;;;;;4917913;29;19911;-58
2022/06/10 14:36:49;;;;;;;;;;;27.20;86.00;;;;;;4916071;29;19942;-57
2022/06/10 14:39:16;;;;;;;;;;;26.80;87.30;;;;;;4922665;29;19907;-57
2022/06/10 14:42:00;;;;;;;;;;;27.00;87.70;;;;;;4920899;29;20161;-57
2022/06/10 14:44:27;;;;;;;;;;;28.10;86.30;;;;;;4919439;29;19959;-58
2022/06/10 14:47:05;;;;;;;;;;;28.20;85.40;;;;;;4917223;29;19911;-57
2022/06/10 14:49:42;;;;;;;;;;;29.90;81.90;;;;;;4918830;29;20068;-58
2022/06/10 14:52:15;;;;;;;;;;;28.80;82.50;;;;;;4913622;29;19931;-57
2022/06/10 14:54:41;;;;;;;;;;;28.10;83.80;;;;;;4919918;29;19949;-58
2022/06/10 14:57:08;;;;;;;;;;;27.80;85.10;;;;;;4915083;29;20002;-57